sensor_id;sensor_type;location;lat;lon;timestamp;temperature;humidity
6581;DHT22;3324;50.796;7.228;2024-03-17T00:01:49;8.60;99.90
6581;DHT22;3324;50.796;7.228;2024-03-17T00:04:15;8.60;99.90
6581;DHT22;3324;50.796;7.228;2024-03-17T00:06:40;8.50;99.90
6581;DHT22;3324;50.796;7.228;2024-03-17T00:09:06;8.50;99.90
6581;DHT22;3324;50.796;7.228;2024-03-17T00:11:34;8.50;99.90
6581;DHT22;3324;50.796;7.228;2024-03-17T00:14:01;8.50;99.90
6581;DHT22;3324;50.796;7.228;2024-03-17T00:16:26;8.40;99.90
6581;DHT22;3324;50.796;7.228;2024-03-17T00:18:52;8.40;99.90
6581;DHT22;3324;50.796;7.228;2024-03-17T00:21:18;8.40;99.90
6581;DHT22;3324;50.796;7.228;2024-03-17T00:23:47;8.40;99.90
6581;DHT22;3324;50.796;7.228;2024-03-17T00:26:12;8.30;99.90
6581;DHT22;3324;50.796;7.228;2024-03-17T00:28:37;8.20;99.90
6581;DHT22;3324;50.796;7.228;2024-03-17T00:31:05;8.20;99.90
6581;DHT22;3324;50.796;7.228;2024-03-17T00:33:30;8.10;99.90
6581;DHT22;3324;50.796;7.228;2024-03-17T00:35:55;8.10;99.90
6581;DHT22;3324;50.796;7.228;2024-03-17T00:38:21;8.10;99.90
6581;DHT22;3324;50.796;7.228;2024-03-17T00:40:46;8.00;99.90
6581;DHT22;3324;50.796;7.228;2024-03-17T00:43:14;8.10;99.90
6581;DHT22;3324;50.796;7.228;2024-03-17T00:45:39;8.10;99.90
6581;DHT22;3324;50.796;7.228;2024-03-17T00:48:05;8.00;99.90
6581;DHT22;3324;50.796;7.228;2024-03-17T00:50:31;8.00;99.90
6581;DHT22;3324;50.796;7.228;2024-03-17T00:52:57;7.90;99.90
6581;DHT22;3324;50.796;7.228;2024-03-17T00:55:22;7.90;99.90
6581;DHT22;3324;50.796;7.228;2024-03-17T00:57:48;7.80;99.90
6581;DHT22;3324;50.796;7.228;2024-03-17T01:00:13;7.80;99.90
6581;DHT22;3324;50.796;7.228;2024-03-17T01:02:40;7.70;99.90
6581;DHT22;3324;50.796;7.228;2024-03-17T01:05:06;7.70;99.90
6581;DHT22;3324;50.796;7.228;2024-03-17T01:07:32;7.70;99.90
6581;DHT22;3324;50.796;7.228;2024-03-17T01:09:57;7.60;99.90
6581;DHT22;3324;50.796;7.228;2024-03-17T01:12:22;7.60;99.90
6581;DHT22;3324;50.796;7.228;2024-03-17T01:14:48;7.60;99.90
6581;DHT22;3324;50.796;7.228;2024-03-17T01:17:14;7.50;99.90
6581;DHT22;3324;50.796;7.228;2024-03-17T01:19:39;7.60;99.90
6581;DHT22;3324;50.796;7.228;2024-03-17T01:22:05;7.50;99.90
6581;DHT22;3324;50.796;7.228;2024-03-17T01:24:30;7.40;99.90
6581;DHT22;3324;50.796;7.228;2024-03-17T01:26:57;7.40;99.90
6581;DHT22;3324;50.796;7.228;2024-03-17T01:29:23;7.40;99.90
6581;DHT22;3324;50.796;7.228;2024-03-17T01:31:48;7.40;99.90
6581;DHT22;3324;50.796;7.228;2024-03-17T01:34:13;7.40;99.90
6581;DHT22;3324;50.796;7.228;2024-03-17T01:36:39;7.40;99.90
6581;DHT22;3324;50.796;7.228;2024-03-17T01:39:04;7.40;99.90
6581;DHT22;3324;50.796;7.228;2024-03-17T01:41:30;7.30;99.90
6581;DHT22;3324;50.796;7.228;2024-03-17T01:43:56;7.30;99.90
6581;DHT22;3324;50.796;7.228;2024-03-17T01:46:24;7.20;99.90
6581;DHT22;3324;50.796;7.228;2024-03-17T01:48:49;7.30;99.90
6581;DHT22;3324;50.796;7.228;2024-03-17T01:51:15;7.20;99.90
6581;DHT22;3324;50.796;7.228;2024-03-17T01:53:41;7.20;99.90
6581;DHT22;3324;50.796;7.228;2024-03-17T01:56:07;7.30;99.90
6581;DHT22;3324;50.796;7.228;2024-03-17T01:58:34;7.20;99.90
6581;DHT22;3324;50.796;7.228;2024-03-17T02:01:01;7.10;99.90
6581;DHT22;3324;50.796;7.228;2024-03-17T02:03:27;7.10;99.90
6581;DHT22;3324;50.796;7.228;2024-03-17T02:05:52;7.00;99.90
6581;DHT22;3324;50.796;7.228;2024-03-17T02:08:18;7.00;99.90
6581;DHT22;3324;50.796;7.228;2024-03-17T02:10:44;7.00;99.90
6581;DHT22;3324;50.796;7.228;2024-03-17T02:13:09;7.00;99.90
6581;DHT22;3324;50.796;7.228;2024-03-17T02:15:35;7.00;99.90
6581;DHT22;3324;50.796;7.228;2024-03-17T02:18:00;7.00;99.90
6581;DHT22;3324;50.796;7.228;2024-03-17T02:20:26;7.00;99.90
6581;DHT22;3324;50.796;7.228;2024-03-17T02:23:10;6.90;99.90
6581;DHT22;3324;50.796;7.228;2024-03-17T02:25:35;6.90;99.90
6581;DHT22;3324;50.796;7.228;2024-03-17T02:28:01;6.80;99.90
6581;DHT22;3324;50.796;7.228;2024-03-17T02:30:27;6.90;99.90
6581;DHT22;3324;50.796;7.228;2024-03-17T02:32:52;6.90;99.90
6581;DHT22;3324;50.796;7.228;2024-03-17T02:35:18;6.80;99.90
6581;DHT22;3324;50.796;7.228;2024-03-17T02:37:43;6.80;99.90
6581;DHT22;3324;50.796;7.228;2024-03-17T02:40:09;6.80;99.90
6581;DHT22;3324;50.796;7.228;2024-03-17T02:42:35;6.70;99.90
6581;DHT22;3324;50.796;7.228;2024-03-17T02:45:03;6.70;99.90
6581;DHT22;3324;50.796;7.228;2024-03-17T02:47:29;6.70;99.90
6581;DHT22;3324;50.796;7.228;2024-03-17T02:49:55;6.70;99.90
6581;DHT22;3324;50.796;7.228;2024-03-17T02:52:20;6.70;99.90
6581;DHT22;3324;50.796;7.228;2024-03-17T02:54:46;6.60;99.90
6581;DHT22;3324;50.796;7.228;2024-03-17T02:57:11;6.60;99.90
6581;DHT22;3324;50.796;7.228;2024-03-17T02:59:37;6.60;99.90
6581;DHT22;3324;50.796;7.228;2024-03-17T03:02:02;6.60;99.90
6581;DHT22;3324;50.796;7.228;2024-03-17T03:04:28;6.50;99.90
6581;DHT22;3324;50.796;7.228;2024-03-17T03:06:53;6.50;99.90
6581;DHT22;3324;50.796;7.228;2024-03-17T03:09:19;6.50;99.90
6581;DHT22;3324;50.796;7.228;2024-03-17T03:11:56;6.50;99.90
6581;DHT22;3324;50.796;7.228;2024-03-17T03:14:21;6.50;99.90
6581;DHT22;3324;50.796;7.228;2024-03-17T03:16:47;6.50;99.90
6581;DHT22;3324;50.796;7.228;2024-03-17T03:19:12;6.60;99.90
6581;DHT22;3324;50.796;7.228;2024-03-17T03:21:38;6.60;99.90
6581;DHT22;3324;50.796;7.228;2024-03-17T03:24:03;6.50;99.90
6581;DHT22;3324;50.796;7.228;2024-03-17T03:26:29;6.50;99.90
6581;DHT22;3324;50.796;7.228;2024-03-17T03:28:54;6.50;99.90
6581;DHT22;3324;50.796;7.228;2024-03-17T03:31:20;6.50;99.90
6581;DHT22;3324;50.796;7.228;2024-03-17T03:33:47;6.50;99.90
6581;DHT22;3324;50.796;7.228;2024-03-17T03:36:13;6.40;99.90
6581;DHT22;3324;50.796;7.228;2024-03-17T03:38:39;6.30;99.90
6581;DHT22;3324;50.796;7.228;2024-03-17T03:43:33;6.30;99.90
6581;DHT22;3324;50.796;7.228;2024-03-17T03:45:59;6.20;99.90
6581;DHT22;3324;50.796;7.228;2024-03-17T03:48:25;6.20;99.90
6581;DHT22;3324;50.796;7.228;2024-03-17T03:50:50;6.20;99.90
6581;DHT22;3324;50.796;7.228;2024-03-17T03:53:19;6.20;99.90
6581;DHT22;3324;50.796;7.228;2024-03-17T03:55:44;6.10;99.90
6581;DHT22;3324;50.796;7.228;2024-03-17T03:58:10;6.10;99.90
6581;DHT22;3324;50.796;7.228;2024-03-17T04:00:38;6.10;99.90
6581;DHT22;3324;50.796;7.228;2024-03-17T04:03:04;6.10;99.90
6581;DHT22;3324;50.796;7.228;2024-03-17T04:05:30;6.00;99.90
6581;DHT22;3324;50.796;7.228;2024-03-17T04:07:55;6.00;99.90
6581;DHT22;3324;50.796;7.228;2024-03-17T04:10:21;6.00;99.90
6581;DHT22;3324;50.796;7.228;2024-03-17T04:12:47;6.00;99.90
6581;DHT22;3324;50.796;7.228;2024-03-17T04:15:13;5.90;99.90
6581;DHT22;3324;50.796;7.228;2024-03-17T04:17:39;5.90;99.90
6581;DHT22;3324;50.796;7.228;2024-03-17T04:20:05;5.90;99.90
6581;DHT22;3324;50.796;7.228;2024-03-17T04:22:33;5.80;99.90
6581;DHT22;3324;50.796;7.228;2024-03-17T04:24:59;5.80;99.90
6581;DHT22;3324;50.796;7.228;2024-03-17T04:27:25;5.80;99.90
6581;DHT22;3324;50.796;7.228;2024-03-17T04:29:51;5.80;99.90
6581;DHT22;3324;50.796;7.228;2024-03-17T04:32:17;5.80;99.90
6581;DHT22;3324;50.796;7.228;2024-03-17T04:34:43;5.80;99.90
6581;DHT22;3324;50.796;7.228;2024-03-17T04:37:12;5.80;99.90
6581;DHT22;3324;50.796;7.228;2024-03-17T04:39:41;5.70;99.90
6581;DHT22;3324;50.796;7.228;2024-03-17T04:42:15;5.70;99.90
6581;DHT22;3324;50.796;7.228;2024-03-17T04:44:44;5.70;99.90
6581;DHT22;3324;50.796;7.228;2024-03-17T04:47:10;5.70;99.90
6581;DHT22;3324;50.796;7.228;2024-03-17T04:49:36;5.60;99.90
6581;DHT22;3324;50.796;7.228;2024-03-17T04:52:02;5.60;99.90
6581;DHT22;3324;50.796;7.228;2024-03-17T04:54:28;5.60;99.90
6581;DHT22;3324;50.796;7.228;2024-03-17T04:56:53;5.50;99.90
6581;DHT22;3324;50.796;7.228;2024-03-17T04:59:19;5.50;99.90
6581;DHT22;3324;50.796;7.228;2024-03-17T05:01:44;5.40;99.90
6581;DHT22;3324;50.796;7.228;2024-03-17T05:04:11;5.50;99.90
6581;DHT22;3324;50.796;7.228;2024-03-17T05:06:36;5.40;99.90
6581;DHT22;3324;50.796;7.228;2024-03-17T05:09:02;5.40;99.90
6581;DHT22;3324;50.796;7.228;2024-03-17T05:11:30;5.40;99.90
6581;DHT22;3324;50.796;7.228;2024-03-17T05:13:56;5.40;99.90
6581;DHT22;3324;50.796;7.228;2024-03-17T05:16:22;5.30;99.90
6581;DHT22;3324;50.796;7.228;2024-03-17T05:18:49;5.30;99.90
6581;DHT22;3324;50.796;7.228;2024-03-17T05:21:14;5.20;99.90
6581;DHT22;3324;50.796;7.228;2024-03-17T05:23:40;5.20;99.90
6581;DHT22;3324;50.796;7.228;2024-03-17T05:26:05;5.30;99.90
6581;DHT22;3324;50.796;7.228;2024-03-17T05:28:31;5.30;99.90
6581;DHT22;3324;50.796;7.228;2024-03-17T05:30:56;5.30;99.90
6581;DHT22;3324;50.796;7.228;2024-03-17T05:33:22;5.30;99.90
6581;DHT22;3324;50.796;7.228;2024-03-17T05:36:06;5.30;99.90
6581;DHT22;3324;50.796;7.228;2024-03-17T05:38:32;5.30;99.90
6581;DHT22;3324;50.796;7.228;2024-03-17T05:41:01;5.30;99.90
6581;DHT22;3324;50.796;7.228;2024-03-17T05:43:27;5.30;99.90
6581;DHT22;3324;50.796;7.228;2024-03-17T05:45:54;5.30;99.90
6581;DHT22;3324;50.796;7.228;2024-03-17T05:48:20;5.30;99.90
6581;DHT22;3324;50.796;7.228;2024-03-17T05:50:46;5.30;99.90
6581;DHT22;3324;50.796;7.228;2024-03-17T05:53:11;5.20;99.90
6581;DHT22;3324;50.796;7.228;2024-03-17T05:55:37;5.20;99.90
6581;DHT22;3324;50.796;7.228;2024-03-17T05:58:03;5.30;99.90
6581;DHT22;3324;50.796;7.228;2024-03-17T06:00:28;5.30;99.90
6581;DHT22;3324;50.796;7.228;2024-03-17T06:02:55;5.30;99.90
6581;DHT22;3324;50.796;7.228;2024-03-17T06:05:20;5.30;99.90
6581;DHT22;3324;50.796;7.228;2024-03-17T06:07:46;5.30;99.90
6581;DHT22;3324;50.796;7.228;2024-03-17T06:10:12;5.30;99.90
6581;DHT22;3324;50.796;7.228;2024-03-17T06:12:37;5.30;99.90
6581;DHT22;3324;50.796;7.228;2024-03-17T06:15:03;5.30;99.90
6581;DHT22;3324;50.796;7.228;2024-03-17T06:17:28;5.40;99.90
6581;DHT22;3324;50.796;7.228;2024-03-17T06:19:54;5.40;99.90
6581;DHT22;3324;50.796;7.228;2024-03-17T06:22:19;5.40;99.90
6581;DHT22;3324;50.796;7.228;2024-03-17T06:24:45;5.40;99.90
6581;DHT22;3324;50.796;7.228;2024-03-17T06:27:10;5.40;99.90
6581;DHT22;3324;50.796;7.228;2024-03-17T06:29:36;5.40;99.90
6581;DHT22;3324;50.796;7.228;2024-03-17T06:32:01;5.40;99.90
6581;DHT22;3324;50.796;7.228;2024-03-17T06:34:27;5.40;99.90
6581;DHT22;3324;50.796;7.228;2024-03-17T06:36:52;5.40;99.90
6581;DHT22;3324;50.796;7.228;2024-03-17T06:39:18;5.50;99.90
6581;DHT22;3324;50.796;7.228;2024-03-17T06:41:45;5.40;99.90
6581;DHT22;3324;50.796;7.228;2024-03-17T06:44:11;5.50;99.90
6581;DHT22;3324;50.796;7.228;2024-03-17T06:46:36;5.50;99.90
6581;DHT22;3324;50.796;7.228;2024-03-17T06:49:02;5.50;99.90
6581;DHT22;3324;50.796;7.228;2024-03-17T06:51:27;5.60;99.90
6581;DHT22;3324;50.796;7.228;2024-03-17T06:53:53;5.60;99.90
6581;DHT22;3324;50.796;7.228;2024-03-17T06:56:18;5.60;99.90
6581;DHT22;3324;50.796;7.228;2024-03-17T06:58:44;5.70;99.90
6581;DHT22;3324;50.796;7.228;2024-03-17T07:01:09;5.80;99.90
6581;DHT22;3324;50.796;7.228;2024-03-17T07:03:35;5.80;99.90
6581;DHT22;3324;50.796;7.228;2024-03-17T07:06:01;5.90;99.90
6581;DHT22;3324;50.796;7.228;2024-03-17T07:08:30;6.00;99.90
6581;DHT22;3324;50.796;7.228;2024-03-17T07:10:57;6.00;99.90
6581;DHT22;3324;50.796;7.228;2024-03-17T07:13:23;6.10;99.90
6581;DHT22;3324;50.796;7.228;2024-03-17T07:15:48;6.20;99.90
6581;DHT22;3324;50.796;7.228;2024-03-17T07:18:14;6.20;99.90
6581;DHT22;3324;50.796;7.228;2024-03-17T07:20:40;6.30;99.90
6581;DHT22;3324;50.796;7.228;2024-03-17T07:23:05;6.40;99.90
6581;DHT22;3324;50.796;7.228;2024-03-17T07:25:31;6.50;99.90
6581;DHT22;3324;50.796;7.228;2024-03-17T07:27:56;6.60;99.90
6581;DHT22;3324;50.796;7.228;2024-03-17T07:30:22;6.70;99.90
6581;DHT22;3324;50.796;7.228;2024-03-17T07:32:47;6.70;99.90
6581;DHT22;3324;50.796;7.228;2024-03-17T07:35:12;6.80;99.90
6581;DHT22;3324;50.796;7.228;2024-03-17T07:37:39;6.90;99.90
6581;DHT22;3324;50.796;7.228;2024-03-17T07:40:05;7.00;99.90
6581;DHT22;3324;50.796;7.228;2024-03-17T07:42:32;7.10;99.90
6581;DHT22;3324;50.796;7.228;2024-03-17T07:44:58;7.20;99.90
6581;DHT22;3324;50.796;7.228;2024-03-17T07:47:23;7.30;99.90
6581;DHT22;3324;50.796;7.228;2024-03-17T07:49:48;7.40;99.90
6581;DHT22;3324;50.796;7.228;2024-03-17T07:52:14;7.40;99.90
6581;DHT22;3324;50.796;7.228;2024-03-17T07:54:40;7.60;99.90
6581;DHT22;3324;50.796;7.228;2024-03-17T07:57:06;7.70;99.90
6581;DHT22;3324;50.796;7.228;2024-03-17T07:59:31;7.70;99.90
6581;DHT22;3324;50.796;7.228;2024-03-17T08:01:57;7.80;99.90
6581;DHT22;3324;50.796;7.228;2024-03-17T08:04:23;7.90;99.90
6581;DHT22;3324;50.796;7.228;2024-03-17T08:06:48;8.00;99.90
6581;DHT22;3324;50.796;7.228;2024-03-17T08:09:13;8.10;99.90
6581;DHT22;3324;50.796;7.228;2024-03-17T08:11:41;8.20;99.90
6581;DHT22;3324;50.796;7.228;2024-03-17T08:14:11;8.30;99.90
6581;DHT22;3324;50.796;7.228;2024-03-17T08:16:37;8.30;99.90
6581;DHT22;3324;50.796;7.228;2024-03-17T08:19:02;8.40;99.90
6581;DHT22;3324;50.796;7.228;2024-03-17T08:21:28;8.50;99.90
6581;DHT22;3324;50.796;7.228;2024-03-17T08:23:55;8.50;99.90
6581;DHT22;3324;50.796;7.228;2024-03-17T08:26:20;8.70;99.90
6581;DHT22;3324;50.796;7.228;2024-03-17T08:28:46;8.80;99.90
6581;DHT22;3324;50.796;7.228;2024-03-17T08:31:12;9.00;99.90
6581;DHT22;3324;50.796;7.228;2024-03-17T08:33:38;9.10;99.90
6581;DHT22;3324;50.796;7.228;2024-03-17T08:36:04;9.20;99.90
6581;DHT22;3324;50.796;7.228;2024-03-17T08:38:30;9.40;99.90
6581;DHT22;3324;50.796;7.228;2024-03-17T08:40:56;9.50;99.90
6581;DHT22;3324;50.796;7.228;2024-03-17T08:43:22;9.60;99.90
6581;DHT22;3324;50.796;7.228;2024-03-17T08:45:54;9.70;99.90
6581;DHT22;3324;50.796;7.228;2024-03-17T08:48:20;9.70;99.90
6581;DHT22;3324;50.796;7.228;2024-03-17T08:50:54;9.70;99.90
6581;DHT22;3324;50.796;7.228;2024-03-17T08:53:20;9.70;99.90
6581;DHT22;3324;50.796;7.228;2024-03-17T08:55:46;9.70;99.90
6581;DHT22;3324;50.796;7.228;2024-03-17T08:58:12;9.80;99.90
6581;DHT22;3324;50.796;7.228;2024-03-17T09:00:37;9.90;99.90
6581;DHT22;3324;50.796;7.228;2024-03-17T09:03:03;10.00;99.90
6581;DHT22;3324;50.796;7.228;2024-03-17T09:05:28;10.10;99.90
6581;DHT22;3324;50.796;7.228;2024-03-17T09:07:54;10.30;99.90
6581;DHT22;3324;50.796;7.228;2024-03-17T09:10:20;10.40;99.90
6581;DHT22;3324;50.796;7.228;2024-03-17T09:12:46;10.50;99.90
6581;DHT22;3324;50.796;7.228;2024-03-17T09:15:12;10.60;99.90
6581;DHT22;3324;50.796;7.228;2024-03-17T09:17:38;10.60;99.90
6581;DHT22;3324;50.796;7.228;2024-03-17T09:20:05;10.60;99.90
6581;DHT22;3324;50.796;7.228;2024-03-17T09:22:33;10.60;99.90
6581;DHT22;3324;50.796;7.228;2024-03-17T09:24:58;10.70;99.90
6581;DHT22;3324;50.796;7.228;2024-03-17T09:27:24;10.70;99.90
6581;DHT22;3324;50.796;7.228;2024-03-17T09:29:51;10.80;99.90
6581;DHT22;3324;50.796;7.228;2024-03-17T09:32:16;10.80;99.90
6581;DHT22;3324;50.796;7.228;2024-03-17T09:34:51;10.90;99.90
6581;DHT22;3324;50.796;7.228;2024-03-17T09:37:17;11.00;99.90
6581;DHT22;3324;50.796;7.228;2024-03-17T09:39:42;11.20;99.90
6581;DHT22;3324;50.796;7.228;2024-03-17T09:42:18;11.30;99.90
6581;DHT22;3324;50.796;7.228;2024-03-17T09:44:47;11.40;99.90
6581;DHT22;3324;50.796;7.228;2024-03-17T09:47:18;11.60;99.90
6581;DHT22;3324;50.796;7.228;2024-03-17T09:49:43;11.70;99.90
6581;DHT22;3324;50.796;7.228;2024-03-17T09:52:10;11.70;99.90
6581;DHT22;3324;50.796;7.228;2024-03-17T09:54:42;11.80;99.90
6581;DHT22;3324;50.796;7.228;2024-03-17T09:57:08;11.80;99.90
6581;DHT22;3324;50.796;7.228;2024-03-17T09:59:40;11.80;99.90
6581;DHT22;3324;50.796;7.228;2024-03-17T10:02:07;11.90;99.90
6581;DHT22;3324;50.796;7.228;2024-03-17T10:04:37;12.00;99.90
6581;DHT22;3324;50.796;7.228;2024-03-17T10:07:03;12.00;99.90
6581;DHT22;3324;50.796;7.228;2024-03-17T10:09:28;12.10;99.90
6581;DHT22;3324;50.796;7.228;2024-03-17T10:11:57;12.10;99.90
6581;DHT22;3324;50.796;7.228;2024-03-17T10:14:23;12.20;99.90
6581;DHT22;3324;50.796;7.228;2024-03-17T10:16:48;12.30;99.90
6581;DHT22;3324;50.796;7.228;2024-03-17T10:19:15;12.30;99.90
6581;DHT22;3324;50.796;7.228;2024-03-17T10:21:44;12.30;99.90
6581;DHT22;3324;50.796;7.228;2024-03-17T10:26:43;12.40;99.90
6581;DHT22;3324;50.796;7.228;2024-03-17T10:31:43;12.50;99.90
6581;DHT22;3324;50.796;7.228;2024-03-17T10:34:10;12.50;99.90
6581;DHT22;3324;50.796;7.228;2024-03-17T10:36:39;12.60;99.90
6581;DHT22;3324;50.796;7.228;2024-03-17T10:39:09;12.70;99.90
6581;DHT22;3324;50.796;7.228;2024-03-17T10:41:41;12.70;99.90
6581;DHT22;3324;50.796;7.228;2024-03-17T10:44:07;12.80;99.90
6581;DHT22;3324;50.796;7.228;2024-03-17T10:46:33;12.90;99.90
6581;DHT22;3324;50.796;7.228;2024-03-17T10:48:58;13.00;99.90
6581;DHT22;3324;50.796;7.228;2024-03-17T10:51:24;13.20;99.90
6581;DHT22;3324;50.796;7.228;2024-03-17T10:53:50;13.20;99.90
6581;DHT22;3324;50.796;7.228;2024-03-17T10:56:18;13.40;99.90
6581;DHT22;3324;50.796;7.228;2024-03-17T10:58:44;13.30;99.90
6581;DHT22;3324;50.796;7.228;2024-03-17T11:01:16;13.30;99.90
6581;DHT22;3324;50.796;7.228;2024-03-17T11:03:43;13.40;99.90
6581;DHT22;3324;50.796;7.228;2024-03-17T11:06:10;13.40;99.90
6581;DHT22;3324;50.796;7.228;2024-03-17T11:08:36;13.40;99.90
6581;DHT22;3324;50.796;7.228;2024-03-17T11:11:02;13.40;99.90
6581;DHT22;3324;50.796;7.228;2024-03-17T11:13:31;13.50;99.90
6581;DHT22;3324;50.796;7.228;2024-03-17T11:15:57;13.50;99.90
6581;DHT22;3324;50.796;7.228;2024-03-17T11:18:36;13.70;99.90
6581;DHT22;3324;50.796;7.228;2024-03-17T11:21:06;13.80;99.90
6581;DHT22;3324;50.796;7.228;2024-03-17T11:23:36;14.00;99.90
6581;DHT22;3324;50.796;7.228;2024-03-17T11:26:02;14.10;99.90
6581;DHT22;3324;50.796;7.228;2024-03-17T11:33:51;14.10;99.90
6581;DHT22;3324;50.796;7.228;2024-03-17T11:38:58;14.00;99.90
6581;DHT22;3324;50.796;7.228;2024-03-17T11:46:38;14.00;99.90
6581;DHT22;3324;50.796;7.228;2024-03-17T11:49:03;14.10;99.90
6581;DHT22;3324;50.796;7.228;2024-03-17T11:51:29;14.30;99.90
6581;DHT22;3324;50.796;7.228;2024-03-17T11:53:58;14.30;99.90
6581;DHT22;3324;50.796;7.228;2024-03-17T11:56:23;14.40;99.90
6581;DHT22;3324;50.796;7.228;2024-03-17T11:59:03;14.40;99.90
6581;DHT22;3324;50.796;7.228;2024-03-17T12:01:31;14.30;99.90
6581;DHT22;3324;50.796;7.228;2024-03-17T12:03:57;14.10;99.90
6581;DHT22;3324;50.796;7.228;2024-03-17T12:06:24;14.20;99.90
6581;DHT22;3324;50.796;7.228;2024-03-17T12:08:50;14.10;99.90
6581;DHT22;3324;50.796;7.228;2024-03-17T12:11:17;14.10;99.90
6581;DHT22;3324;50.796;7.228;2024-03-17T12:13:42;14.10;99.90
6581;DHT22;3324;50.796;7.228;2024-03-17T12:16:12;14.10;99.90
6581;DHT22;3324;50.796;7.228;2024-03-17T12:18:38;14.20;99.90
6581;DHT22;3324;50.796;7.228;2024-03-17T12:21:13;14.30;99.90
6581;DHT22;3324;50.796;7.228;2024-03-17T12:23:39;14.50;99.90
6581;DHT22;3324;50.796;7.228;2024-03-17T12:26:05;14.60;99.90
6581;DHT22;3324;50.796;7.228;2024-03-17T12:28:30;14.40;99.90
6581;DHT22;3324;50.796;7.228;2024-03-17T12:30:56;14.50;99.90
6581;DHT22;3324;50.796;7.228;2024-03-17T12:33:24;14.50;99.90
6581;DHT22;3324;50.796;7.228;2024-03-17T12:35:49;14.50;99.90
6581;DHT22;3324;50.796;7.228;2024-03-17T12:38:21;14.60;99.90
6581;DHT22;3324;50.796;7.228;2024-03-17T12:40:48;14.60;99.90
6581;DHT22;3324;50.796;7.228;2024-03-17T12:43:13;14.70;99.90
6581;DHT22;3324;50.796;7.228;2024-03-17T12:45:39;14.80;99.90
6581;DHT22;3324;50.796;7.228;2024-03-17T12:48:09;14.90;99.90
6581;DHT22;3324;50.796;7.228;2024-03-17T12:50:37;14.90;99.90
6581;DHT22;3324;50.796;7.228;2024-03-17T12:53:13;15.00;99.90
6581;DHT22;3324;50.796;7.228;2024-03-17T12:55:41;15.00;99.90
6581;DHT22;3324;50.796;7.228;2024-03-17T12:58:25;15.00;99.90
6581;DHT22;3324;50.796;7.228;2024-03-17T13:01:11;15.00;99.90
6581;DHT22;3324;50.796;7.228;2024-03-17T13:03:38;15.00;99.90
6581;DHT22;3324;50.796;7.228;2024-03-17T13:06:05;15.00;99.90
6581;DHT22;3324;50.796;7.228;2024-03-17T13:08:32;15.00;99.90
6581;DHT22;3324;50.796;7.228;2024-03-17T13:10:58;15.00;99.90
6581;DHT22;3324;50.796;7.228;2024-03-17T13:13:23;14.90;99.90
6581;DHT22;3324;50.796;7.228;2024-03-17T13:15:49;14.90;99.90
6581;DHT22;3324;50.796;7.228;2024-03-17T13:18:18;14.90;99.90
6581;DHT22;3324;50.796;7.228;2024-03-17T13:20:47;15.00;99.90
6581;DHT22;3324;50.796;7.228;2024-03-17T13:23:15;15.00;99.90
6581;DHT22;3324;50.796;7.228;2024-03-17T13:25:40;15.00;99.90
6581;DHT22;3324;50.796;7.228;2024-03-17T13:28:08;14.90;99.90
6581;DHT22;3324;50.796;7.228;2024-03-17T13:30:34;14.90;99.90
6581;DHT22;3324;50.796;7.228;2024-03-17T13:33:02;14.90;99.90
6581;DHT22;3324;50.796;7.228;2024-03-17T13:35:30;14.80;99.90
6581;DHT22;3324;50.796;7.228;2024-03-17T13:37:56;14.80;99.90
6581;DHT22;3324;50.796;7.228;2024-03-17T13:40:25;14.70;99.90
6581;DHT22;3324;50.796;7.228;2024-03-17T13:42:51;14.70;99.90
6581;DHT22;3324;50.796;7.228;2024-03-17T13:45:17;14.60;99.90
6581;DHT22;3324;50.796;7.228;2024-03-17T13:50:14;14.60;99.90
6581;DHT22;3324;50.796;7.228;2024-03-17T13:52:40;14.60;99.90
6581;DHT22;3324;50.796;7.228;2024-03-17T13:55:06;14.70;99.90
6581;DHT22;3324;50.796;7.228;2024-03-17T13:57:32;14.70;99.90
6581;DHT22;3324;50.796;7.228;2024-03-17T13:59:58;14.70;99.90
6581;DHT22;3324;50.796;7.228;2024-03-17T14:02:23;14.70;99.90
6581;DHT22;3324;50.796;7.228;2024-03-17T14:04:49;14.60;99.90
6581;DHT22;3324;50.796;7.228;2024-03-17T14:07:14;14.60;99.90
6581;DHT22;3324;50.796;7.228;2024-03-17T14:09:40;14.60;99.90
6581;DHT22;3324;50.796;7.228;2024-03-17T14:12:06;14.60;99.90
6581;DHT22;3324;50.796;7.228;2024-03-17T14:14:32;14.60;99.90
6581;DHT22;3324;50.796;7.228;2024-03-17T14:16:58;14.50;99.90
6581;DHT22;3324;50.796;7.228;2024-03-17T14:19:25;14.60;99.90
6581;DHT22;3324;50.796;7.228;2024-03-17T14:21:50;14.60;99.90
6581;DHT22;3324;50.796;7.228;2024-03-17T14:24:17;14.50;99.90
6581;DHT22;3324;50.796;7.228;2024-03-17T14:26:43;14.60;99.90
6581;DHT22;3324;50.796;7.228;2024-03-17T14:29:08;14.60;99.90
6581;DHT22;3324;50.796;7.228;2024-03-17T14:31:34;14.60;99.90
6581;DHT22;3324;50.796;7.228;2024-03-17T14:34:03;14.60;99.90
6581;DHT22;3324;50.796;7.228;2024-03-17T14:36:30;14.60;99.90
6581;DHT22;3324;50.796;7.228;2024-03-17T14:38:58;14.60;99.90
6581;DHT22;3324;50.796;7.228;2024-03-17T14:41:24;14.60;99.90
6581;DHT22;3324;50.796;7.228;2024-03-17T14:43:50;14.60;99.90
6581;DHT22;3324;50.796;7.228;2024-03-17T14:46:15;14.60;99.90
6581;DHT22;3324;50.796;7.228;2024-03-17T14:48:42;14.70;99.90
6581;DHT22;3324;50.796;7.228;2024-03-17T14:51:08;14.70;99.90
6581;DHT22;3324;50.796;7.228;2024-03-17T14:53:34;14.80;99.90
6581;DHT22;3324;50.796;7.228;2024-03-17T14:56:02;14.90;99.90
6581;DHT22;3324;50.796;7.228;2024-03-17T14:58:27;14.90;99.90
6581;DHT22;3324;50.796;7.228;2024-03-17T15:00:53;15.00;99.90
6581;DHT22;3324;50.796;7.228;2024-03-17T15:03:18;15.00;99.90
6581;DHT22;3324;50.796;7.228;2024-03-17T15:05:44;15.00;99.90
6581;DHT22;3324;50.796;7.228;2024-03-17T15:08:09;15.00;99.90
6581;DHT22;3324;50.796;7.228;2024-03-17T15:10:35;15.00;99.90
6581;DHT22;3324;50.796;7.228;2024-03-17T15:13:01;15.00;99.90
6581;DHT22;3324;50.796;7.228;2024-03-17T15:15:27;15.00;99.90
6581;DHT22;3324;50.796;7.228;2024-03-17T15:17:53;15.00;99.90
6581;DHT22;3324;50.796;7.228;2024-03-17T15:20:19;15.20;99.90
6581;DHT22;3324;50.796;7.228;2024-03-17T15:22:49;15.20;99.90
6581;DHT22;3324;50.796;7.228;2024-03-17T15:25:15;15.20;99.90
6581;DHT22;3324;50.796;7.228;2024-03-17T15:27:41;15.20;99.90
6581;DHT22;3324;50.796;7.228;2024-03-17T15:30:08;15.30;99.90
6581;DHT22;3324;50.796;7.228;2024-03-17T15:32:36;15.30;99.90
6581;DHT22;3324;50.796;7.228;2024-03-17T15:35:02;15.30;99.90
6581;DHT22;3324;50.796;7.228;2024-03-17T15:37:28;15.30;99.90
6581;DHT22;3324;50.796;7.228;2024-03-17T15:39:53;15.30;99.90
6581;DHT22;3324;50.796;7.228;2024-03-17T15:42:21;15.20;99.90
6581;DHT22;3324;50.796;7.228;2024-03-17T15:44:46;15.20;99.90
6581;DHT22;3324;50.796;7.228;2024-03-17T15:47:13;15.20;99.90
6581;DHT22;3324;50.796;7.228;2024-03-17T15:49:38;15.10;99.90
6581;DHT22;3324;50.796;7.228;2024-03-17T15:52:04;15.00;99.90
6581;DHT22;3324;50.796;7.228;2024-03-17T15:54:29;14.90;99.90
6581;DHT22;3324;50.796;7.228;2024-03-17T15:56:55;14.90;99.90
6581;DHT22;3324;50.796;7.228;2024-03-17T15:59:20;14.80;99.90
6581;DHT22;3324;50.796;7.228;2024-03-17T16:01:48;14.70;99.90
6581;DHT22;3324;50.796;7.228;2024-03-17T16:04:14;14.70;99.90
6581;DHT22;3324;50.796;7.228;2024-03-17T16:06:39;14.60;99.90
6581;DHT22;3324;50.796;7.228;2024-03-17T16:09:05;14.60;99.90
6581;DHT22;3324;50.796;7.228;2024-03-17T16:11:35;14.50;99.90
6581;DHT22;3324;50.796;7.228;2024-03-17T16:14:02;14.50;99.90
6581;DHT22;3324;50.796;7.228;2024-03-17T16:16:28;14.40;99.90
6581;DHT22;3324;50.796;7.228;2024-03-17T16:18:55;14.40;99.90
6581;DHT22;3324;50.796;7.228;2024-03-17T16:21:23;14.40;99.90
6581;DHT22;3324;50.796;7.228;2024-03-17T16:26:16;14.40;99.90
6581;DHT22;3324;50.796;7.228;2024-03-17T16:28:41;14.40;99.90
6581;DHT22;3324;50.796;7.228;2024-03-17T16:31:07;14.40;99.90